createdAt,value
2023-02-06T00:02:12.457Z,1.00
2023-02-06T00:04:39.897Z,1.40
2023-02-06T00:07:07.483Z,1.40
2023-02-06T00:09:34.931Z,1.10
2023-02-06T00:12:02.294Z,1.73
2023-02-06T00:14:29.728Z,1.20
2023-02-06T00:16:57.057Z,1.50
2023-02-06T00:19:24.469Z,1.37
2023-02-06T00:21:51.880Z,1.23
2023-02-06T00:24:19.258Z,1.50
2023-02-06T00:26:48.382Z,1.40
2023-02-06T00:29:15.933Z,1.37
2023-02-06T00:31:43.321Z,1.10
2023-02-06T00:34:10.812Z,1.20
2023-02-06T00:36:40.316Z,1.27
2023-02-06T00:39:08.797Z,1.33
2023-02-06T00:41:36.288Z,1.40
2023-02-06T00:44:03.865Z,1.27
2023-02-06T00:46:32.722Z,2.03
2023-02-06T00:49:00.620Z,1.00
2023-02-06T00:51:29.371Z,1.20
2023-02-06T00:53:56.868Z,1.30
2023-02-06T00:56:24.333Z,1.30
2023-02-06T00:58:51.710Z,1.43
2023-02-06T01:01:19.259Z,1.27
2023-02-06T01:03:46.646Z,1.40
2023-02-06T01:06:13.923Z,0.90
2023-02-06T01:08:41.280Z,1.20
2023-02-06T01:11:15.012Z,1.17
2023-02-06T01:13:42.934Z,1.03
2023-02-06T01:16:11.376Z,1.40
2023-02-06T01:18:38.960Z,1.60
2023-02-06T01:21:10.260Z,1.40
2023-02-06T01:23:38.058Z,1.07
2023-02-06T01:26:06.751Z,1.50
2023-02-06T01:28:36.921Z,1.47
2023-02-06T01:31:14.527Z,1.07
2023-02-06T01:33:41.974Z,1.30
2023-02-06T01:36:13.918Z,1.13
2023-02-06T01:38:41.688Z,1.20
2023-02-06T01:41:09.867Z,1.30
2023-02-06T01:43:38.818Z,1.17
2023-02-06T01:46:07.873Z,1.33
2023-02-06T01:48:35.361Z,1.20
2023-02-06T01:51:03.693Z,1.37
2023-02-06T01:53:33.037Z,1.23
2023-02-06T01:56:01.377Z,1.30
2023-02-06T01:58:30.661Z,1.40
2023-02-06T02:00:58.728Z,1.50
2023-02-06T02:03:27.273Z,1.27
2023-02-06T02:05:56.648Z,1.27
2023-02-06T02:08:27.856Z,1.33
2023-02-06T02:10:55.490Z,1.20
2023-02-06T02:13:22.939Z,1.27
2023-02-06T02:15:59.351Z,1.40
2023-02-06T02:18:32.201Z,1.23
2023-02-06T02:21:02.554Z,1.20
2023-02-06T02:23:33.666Z,1.20
2023-02-06T02:26:27.303Z,0.83
2023-02-06T02:29:10.031Z,1.10
2023-02-06T02:31:55.920Z,1.33
2023-02-06T02:34:29.441Z,1.43
2023-02-06T02:37:08.835Z,1.23
2023-02-06T02:39:42.772Z,1.30
2023-02-06T02:42:16.198Z,1.07
2023-02-06T02:44:59.486Z,1.10
2023-02-06T02:47:29.713Z,1.23
2023-02-06T02:49:58.191Z,1.23
2023-02-06T02:52:25.641Z,1.27
2023-02-06T02:54:53.050Z,1.23
2023-02-06T02:57:23.885Z,0.90
2023-02-06T02:59:52.642Z,0.90
2023-02-06T03:02:24.848Z,1.00
2023-02-06T03:04:54.228Z,0.90
2023-02-06T03:07:27.850Z,1.37
2023-02-06T03:10:11.535Z,1.20
2023-02-06T03:12:49.433Z,1.07
2023-02-06T03:15:16.764Z,1.00
2023-02-06T03:17:55.604Z,1.00
2023-02-06T03:20:23.842Z,1.30
2023-02-06T03:22:51.758Z,1.10
2023-02-06T03:25:28.930Z,1.53
2023-02-06T03:27:57.780Z,1.10
2023-02-06T03:30:25.763Z,1.30
2023-02-06T03:32:55.097Z,1.30
2023-02-06T03:35:25.869Z,1.10
2023-02-06T03:37:53.829Z,1.00
2023-02-06T03:40:21.768Z,1.23
2023-02-06T03:42:50.870Z,1.10
2023-02-06T03:45:18.316Z,1.57
2023-02-06T03:47:47.903Z,1.20
2023-02-06T03:50:15.688Z,1.03
2023-02-06T03:52:45.522Z,1.63
2023-02-06T03:55:19.505Z,1.07
2023-02-06T03:57:49.204Z,1.00
2023-02-06T04:00:17.002Z,1.23
2023-02-06T04:02:46.422Z,1.10
2023-02-06T04:05:14.705Z,1.23
2023-02-06T04:07:42.088Z,1.30
2023-02-06T04:10:09.900Z,1.60
2023-02-06T04:12:37.415Z,1.27
2023-02-06T04:15:05.294Z,1.23
2023-02-06T04:17:49.609Z,1.07
2023-02-06T04:20:20.576Z,1.00
2023-02-06T04:22:47.985Z,1.20
2023-02-06T04:25:15.510Z,1.50
2023-02-06T04:27:42.923Z,1.07
2023-02-06T04:30:10.718Z,1.10
2023-02-06T04:32:38.221Z,1.20
2023-02-06T04:35:05.770Z,1.20
2023-02-06T04:37:33.424Z,1.37
2023-02-06T04:40:00.776Z,1.00
2023-02-06T04:42:28.132Z,1.27
2023-02-06T04:44:55.473Z,1.30
2023-02-06T04:47:22.909Z,1.10
2023-02-06T04:49:50.275Z,1.00
2023-02-06T04:52:17.659Z,1.07
2023-02-06T04:54:44.956Z,1.10
2023-02-06T04:57:12.304Z,1.07
2023-02-06T04:59:39.612Z,1.23
2023-02-06T05:02:07.097Z,1.40
2023-02-06T05:04:34.632Z,1.40
2023-02-06T05:07:05.375Z,1.17
2023-02-06T05:09:32.875Z,1.43
2023-02-06T05:12:00.233Z,1.40
2023-02-06T05:14:27.554Z,1.40
2023-02-06T05:16:54.911Z,1.13
2023-02-06T05:19:22.228Z,1.17
2023-02-06T05:21:49.502Z,1.17
2023-02-06T05:24:16.831Z,1.23
2023-02-06T05:26:45.006Z,1.10
2023-02-06T05:29:12.494Z,1.23
2023-02-06T05:31:39.981Z,1.30
2023-02-06T05:34:07.482Z,1.70
2023-02-06T05:36:34.882Z,1.20
2023-02-06T05:39:02.239Z,1.43
2023-02-06T05:41:41.223Z,1.30
2023-02-06T05:44:11.421Z,1.20
2023-02-06T05:46:51.649Z,1.47
2023-02-06T05:49:28.219Z,1.00
2023-02-06T05:55:25.384Z,1.43
2023-02-06T05:58:02.936Z,1.47
2023-02-06T06:03:42.471Z,1.03
2023-02-06T06:06:24.624Z,1.13
2023-02-06T06:09:06.219Z,1.23
2023-02-06T06:11:45.866Z,1.17
2023-02-06T06:14:22.093Z,1.17
2023-02-06T06:16:57.153Z,1.43
2023-02-06T06:19:35.071Z,1.27
2023-02-06T06:22:13.924Z,1.50
2023-02-06T06:24:49.921Z,1.30
2023-02-06T06:27:25.490Z,1.17
2023-02-06T06:29:59.123Z,1.03
2023-02-06T06:32:35.120Z,1.27
2023-02-06T06:35:19.577Z,1.00
2023-02-06T06:37:56.674Z,0.80
2023-02-06T06:40:37.938Z,1.53
2023-02-06T06:43:08.606Z,1.07
2023-02-06T06:45:36.281Z,1.30
2023-02-06T06:48:07.496Z,1.10
2023-02-06T06:50:39.948Z,1.23
2023-02-06T06:53:08.028Z,1.30
2023-02-06T06:55:35.696Z,1.20
2023-02-06T06:58:03.227Z,1.07
2023-02-06T07:00:30.620Z,1.40
2023-02-06T07:02:57.939Z,1.27
2023-02-06T07:05:25.451Z,1.20
2023-02-06T07:07:52.791Z,0.90
2023-02-06T07:10:20.160Z,1.30
2023-02-06T07:12:48.583Z,1.07
2023-02-06T07:15:19.133Z,1.30
2023-02-06T07:17:46.795Z,1.20
2023-02-06T07:20:16.502Z,1.47
2023-02-06T07:22:44.070Z,1.43
2023-02-06T07:25:11.653Z,1.33
2023-02-06T07:27:39.070Z,1.30
2023-02-06T07:30:07.065Z,1.30
2023-02-06T07:32:37.789Z,1.50
2023-02-06T07:35:06.060Z,1.10
2023-02-06T07:37:33.865Z,1.23
2023-02-06T07:40:05.713Z,1.40
2023-02-06T07:42:33.774Z,1.90
2023-02-06T07:45:09.764Z,1.17
2023-02-06T07:47:37.221Z,1.03
2023-02-06T07:50:04.713Z,1.10
2023-02-06T07:52:32.194Z,2.17
2023-02-06T07:54:59.858Z,1.20
2023-02-06T07:57:27.509Z,1.17
2023-02-06T07:59:54.966Z,1.20
2023-02-06T08:02:22.535Z,1.40
2023-02-06T08:04:50.022Z,1.50
2023-02-06T08:07:18.410Z,2.13
2023-02-06T08:09:45.827Z,1.30
2023-02-06T08:12:13.312Z,1.10
2023-02-06T08:14:40.915Z,1.47
2023-02-06T08:17:08.490Z,1.60
2023-02-06T08:19:36.227Z,1.40
2023-02-06T08:22:03.641Z,1.40
2023-02-06T08:24:32.328Z,1.30
2023-02-06T08:26:59.820Z,1.20
2023-02-06T08:29:27.461Z,1.30
2023-02-06T08:31:55.016Z,1.20
2023-02-06T08:34:22.678Z,1.40
2023-02-06T08:36:50.208Z,1.67
2023-02-06T08:39:19.219Z,1.87
2023-02-06T08:41:46.662Z,1.20
2023-02-06T08:44:16.136Z,1.10
2023-02-06T08:46:44.263Z,1.43
2023-02-06T08:49:16.590Z,1.80
2023-02-06T08:51:44.561Z,1.50
2023-02-06T08:54:18.267Z,1.17
2023-02-06T08:57:01.067Z,1.40
2023-02-06T08:59:29.506Z,1.45
2023-02-06T09:01:57.158Z,1.10
2023-02-06T09:04:26.325Z,1.50
2023-02-06T09:06:53.876Z,2.23
2023-02-06T09:09:33.741Z,2.13
2023-02-06T09:12:05.229Z,1.47
2023-02-06T09:14:33.189Z,1.27
2023-02-06T09:17:05.048Z,1.97
2023-02-06T09:19:37.513Z,1.80
2023-02-06T09:22:07.130Z,1.43
2023-02-06T09:24:34.847Z,1.13
2023-02-06T09:27:02.288Z,2.50
2023-02-06T09:29:32.259Z,1.83
2023-02-06T09:32:00.321Z,1.73
2023-02-06T09:34:29.522Z,1.10
2023-02-06T09:37:09.616Z,2.23
2023-02-06T09:39:37.275Z,1.70
2023-02-06T09:42:10.405Z,1.47
2023-02-06T09:44:43.088Z,2.27
2023-02-06T09:47:37.183Z,1.17
2023-02-06T09:50:10.186Z,1.23
2023-02-06T09:52:43.723Z,1.57
2023-02-06T09:55:17.991Z,1.20
2023-02-06T09:58:03.928Z,1.37
2023-02-06T10:00:34.083Z,1.43
2023-02-06T10:03:20.388Z,1.30
2023-02-06T10:05:51.900Z,1.30
2023-02-06T10:08:46.135Z,1.47
2023-02-06T10:11:18.158Z,1.40
2023-02-06T10:13:49.826Z,1.20
2023-02-06T10:16:22.115Z,1.53
2023-02-06T10:18:52.469Z,2.33
2023-02-06T10:21:23.416Z,1.30
2023-02-06T10:24:09.928Z,1.30
2023-02-06T10:26:39.314Z,1.63
2023-02-06T10:29:07.873Z,1.37
2023-02-06T10:31:51.111Z,1.67
2023-02-06T10:34:40.242Z,1.70
2023-02-06T10:37:16.266Z,1.57
2023-02-06T10:40:02.949Z,1.03
2023-02-06T10:42:47.565Z,1.40
2023-02-06T10:45:20.249Z,1.20
2023-02-06T10:47:51.838Z,1.70
2023-02-06T10:50:24.457Z,1.43
2023-02-06T10:52:55.050Z,1.40
2023-02-06T10:55:29.386Z,1.30
2023-02-06T10:58:18.013Z,1.70
2023-02-06T11:00:46.889Z,1.43
2023-02-06T11:03:20.454Z,1.20
2023-02-06T11:05:48.324Z,1.30
2023-02-06T11:08:33.902Z,1.73
2023-02-06T11:11:32.663Z,1.47
2023-02-06T11:14:08.508Z,1.10
2023-02-06T11:16:37.636Z,1.70
2023-02-06T11:19:23.890Z,1.97
2023-02-06T11:21:55.956Z,1.53
2023-02-06T11:24:25.288Z,1.13
2023-02-06T11:27:03.452Z,1.53
2023-02-06T11:29:37.148Z,2.10
2023-02-06T11:32:09.028Z,2.20
2023-02-06T11:34:53.703Z,1.53
2023-02-06T11:37:32.484Z,1.23
2023-02-06T11:40:22.031Z,1.87
2023-02-06T11:42:52.863Z,1.40
2023-02-06T11:45:25.804Z,1.17
2023-02-06T11:47:53.306Z,1.73
2023-02-06T11:50:35.219Z,2.00
2023-02-06T11:53:10.567Z,1.57
2023-02-06T11:55:39.885Z,1.47
2023-02-06T11:58:13.843Z,1.50
2023-02-06T12:00:45.692Z,2.10
2023-02-06T12:03:27.318Z,1.40
2023-02-06T12:05:57.890Z,1.87
2023-02-06T12:08:30.164Z,1.23
2023-02-06T12:11:04.574Z,1.83
2023-02-06T12:13:37.989Z,1.47
2023-02-06T12:16:09.610Z,1.73
2023-02-06T12:18:39.414Z,1.47
2023-02-06T12:21:08.876Z,2.13
2023-02-06T12:23:44.940Z,1.60
2023-02-06T12:26:17.184Z,1.40
2023-02-06T12:29:01.152Z,1.67
2023-02-06T12:31:48.671Z,1.50
2023-02-06T12:34:33.617Z,1.50
2023-02-06T12:37:14.079Z,1.70
2023-02-06T12:39:49.147Z,1.30
2023-02-06T12:42:32.758Z,1.47
2023-02-06T12:45:03.475Z,1.27
2023-02-06T12:47:31.341Z,1.47
2023-02-06T12:50:21.642Z,1.50
2023-02-06T12:56:26.154Z,1.40
2023-02-06T12:58:59.789Z,1.30
2023-02-06T13:01:35.926Z,1.33
2023-02-06T13:04:05.603Z,1.20
2023-02-06T13:06:39.848Z,1.10
2023-02-06T13:09:08.056Z,1.30
2023-02-06T13:11:38.993Z,1.50
2023-02-06T13:14:12.509Z,1.40
2023-02-06T13:16:43.156Z,1.10
2023-02-06T13:19:29.568Z,1.40
2023-02-06T13:22:09.186Z,1.50
2023-02-06T13:24:38.521Z,1.13
2023-02-06T13:27:08.938Z,1.50
2023-02-06T13:29:41.553Z,1.23
2023-02-06T13:32:12.176Z,1.00
2023-02-06T13:34:44.586Z,1.30
2023-02-06T13:37:30.844Z,1.33
2023-02-06T13:40:17.397Z,1.40
2023-02-06T13:42:50.069Z,1.30
2023-02-06T13:45:37.856Z,1.60
2023-02-06T13:48:24.353Z,2.10
2023-02-06T13:50:54.859Z,1.30
2023-02-06T13:53:40.598Z,1.53
2023-02-06T13:56:26.773Z,1.40
2023-02-06T13:58:54.969Z,1.90
2023-02-06T14:01:25.988Z,1.33
2023-02-06T14:03:54.064Z,1.37
2023-02-06T14:06:38.118Z,1.53
2023-02-06T14:09:30.678Z,1.43
2023-02-06T14:12:16.912Z,1.40
2023-02-06T14:14:47.287Z,1.80
2023-02-06T14:17:33.058Z,1.30
2023-02-06T14:20:30.044Z,1.33
2023-02-06T14:23:16.204Z,1.70
2023-02-06T14:26:02.423Z,1.33
2023-02-06T14:28:32.869Z,1.20
2023-02-06T14:31:16.570Z,1.40
2023-02-06T14:34:07.581Z,1.40
2023-02-06T14:36:53.945Z,1.50
2023-02-06T14:39:32.728Z,1.30
2023-02-06T14:42:00.456Z,1.67
2023-02-06T14:44:32.126Z,1.67
2023-02-06T14:46:59.692Z,1.23
2023-02-06T14:49:39.946Z,1.20
2023-02-06T14:52:07.458Z,1.40
2023-02-06T14:54:36.599Z,1.37
2023-02-06T14:57:05.735Z,1.57
2023-02-06T14:59:33.217Z,1.40
2023-02-06T15:02:13.111Z,1.80
2023-02-06T15:04:48.509Z,1.30
2023-02-06T15:07:28.525Z,1.50
2023-02-06T15:09:57.328Z,1.53
2023-02-06T15:12:27.179Z,1.70
2023-02-06T15:15:00.838Z,1.27
2023-02-06T15:17:28.159Z,1.40
2023-02-06T15:19:56.004Z,1.47
2023-02-06T15:22:27.850Z,1.57
2023-02-06T15:24:55.203Z,1.67
2023-02-06T15:27:33.164Z,1.67
2023-02-06T15:30:01.564Z,1.50
2023-02-06T15:32:40.437Z,1.40
2023-02-06T15:35:22.581Z,1.53
2023-02-06T15:37:51.611Z,1.30
2023-02-06T15:40:31.381Z,1.87
2023-02-06T15:42:59.368Z,1.30
2023-02-06T15:45:37.634Z,1.73
2023-02-06T15:48:18.358Z,1.63
2023-02-06T15:50:59.499Z,1.40
2023-02-06T15:53:31.768Z,1.80
2023-02-06T15:55:59.462Z,1.80
2023-02-06T15:58:27.024Z,1.60
2023-02-06T16:00:58.282Z,1.33
2023-02-06T16:03:27.266Z,1.33
2023-02-06T16:05:57.543Z,1.53
2023-02-06T16:08:26.859Z,1.23
2023-02-06T16:10:56.557Z,1.63
2023-02-06T16:13:26.024Z,1.70
2023-02-06T16:16:06.486Z,1.60
2023-02-06T16:18:35.320Z,1.80
2023-02-06T16:21:14.752Z,1.43
2023-02-06T16:23:48.359Z,1.20
2023-02-06T16:26:20.375Z,1.53
2023-02-06T16:29:02.773Z,1.63
2023-02-06T16:31:36.187Z,1.40
2023-02-06T16:34:19.369Z,1.80
2023-02-06T16:36:46.942Z,1.57
2023-02-06T16:39:14.571Z,1.40
2023-02-06T16:41:43.194Z,1.53
2023-02-06T16:44:12.974Z,1.70
2023-02-06T16:46:40.344Z,1.77
2023-02-06T16:49:14.710Z,1.27
2023-02-06T16:51:42.988Z,1.10
2023-02-06T16:54:16.122Z,1.23
2023-02-06T16:56:43.489Z,1.40
2023-02-06T16:59:10.851Z,1.83
2023-02-06T17:01:38.218Z,1.70
2023-02-06T17:04:05.619Z,1.10
2023-02-06T17:06:34.035Z,1.40
2023-02-06T17:09:12.802Z,1.17
2023-02-06T17:11:40.184Z,1.23
2023-02-06T17:14:07.455Z,1.67
2023-02-06T17:16:34.924Z,1.10
2023-02-06T17:19:02.203Z,1.10
2023-02-06T17:21:32.753Z,1.40
2023-02-06T17:24:00.148Z,1.53
2023-02-06T17:26:27.658Z,1.73
2023-02-06T17:28:54.972Z,1.50
2023-02-06T17:31:22.559Z,1.60
2023-02-06T17:33:50.402Z,1.57
2023-02-06T17:36:19.216Z,1.20
2023-02-06T17:38:46.754Z,1.23
2023-02-06T17:41:14.090Z,1.77
2023-02-06T17:43:41.420Z,1.53
2023-02-06T17:46:08.880Z,1.47
2023-02-06T17:48:36.755Z,1.43
2023-02-06T17:51:05.821Z,1.80
2023-02-06T17:53:34.094Z,1.60
2023-02-06T17:56:06.722Z,1.43
2023-02-06T17:58:34.291Z,1.47
2023-02-06T18:01:01.660Z,0.97
2023-02-06T18:03:29.155Z,1.53
2023-02-06T18:06:00.421Z,1.47
2023-02-06T18:08:28.754Z,1.60
2023-02-06T18:10:56.265Z,1.20
2023-02-06T18:13:24.445Z,1.60
2023-02-06T18:15:52.803Z,1.53
2023-02-06T18:18:20.295Z,1.37
2023-02-06T18:20:47.767Z,1.33
2023-02-06T18:23:15.391Z,1.77
2023-02-06T18:25:49.366Z,1.20
2023-02-06T18:28:19.174Z,1.00
2023-02-06T18:30:46.812Z,1.27
2023-02-06T18:33:14.239Z,1.00
2023-02-06T18:35:47.012Z,1.63
2023-02-06T18:38:14.767Z,1.30
2023-02-06T18:40:45.695Z,1.10
2023-02-06T18:43:15.934Z,1.37
2023-02-06T18:45:46.193Z,1.20
2023-02-06T18:48:14.094Z,1.30
2023-02-06T18:50:44.632Z,1.40
2023-02-06T18:53:12.301Z,1.50
2023-02-06T18:55:40.486Z,1.57
2023-02-06T18:58:08.189Z,1.30
2023-02-06T19:00:37.911Z,1.23
2023-02-06T19:03:05.577Z,1.30
2023-02-06T19:05:35.108Z,1.30
2023-02-06T19:08:02.446Z,1.43
2023-02-06T19:10:29.788Z,1.50
2023-02-06T19:12:57.255Z,1.40
2023-02-06T19:15:24.990Z,1.53
2023-02-06T19:17:52.387Z,1.03
2023-02-06T19:20:20.327Z,1.80
2023-02-06T19:22:47.864Z,1.53
2023-02-06T19:25:15.634Z,1.60
2023-02-06T19:27:43.731Z,1.20
2023-02-06T19:30:13.077Z,1.20
2023-02-06T19:32:40.497Z,1.43
2023-02-06T19:35:08.046Z,1.60
2023-02-06T19:37:35.475Z,1.70
2023-02-06T19:40:02.834Z,1.37
2023-02-06T19:42:30.283Z,1.37
2023-02-06T19:44:57.655Z,1.47
2023-02-06T19:47:25.080Z,1.30
2023-02-06T19:49:52.894Z,1.17
2023-02-06T19:52:20.488Z,1.50
2023-02-06T19:54:48.048Z,1.23
2023-02-06T19:57:16.399Z,1.43
2023-02-06T19:59:43.890Z,1.40
2023-02-06T20:02:17.190Z,1.63
2023-02-06T20:04:47.836Z,1.55
2023-02-06T20:07:17.681Z,1.87
2023-02-06T20:09:45.976Z,1.77
2023-02-06T20:12:13.441Z,1.63
2023-02-06T20:14:40.930Z,1.80
2023-02-06T20:17:08.422Z,1.53
2023-02-06T20:19:35.795Z,1.47
2023-02-06T20:22:04.361Z,1.87
2023-02-06T20:24:32.586Z,1.77
2023-02-06T20:27:01.389Z,1.60
2023-02-06T20:29:30.592Z,1.60
2023-02-06T20:31:58.304Z,1.53
2023-02-06T20:34:26.912Z,1.93
2023-02-06T20:36:55.582Z,1.63
2023-02-06T20:39:22.951Z,1.87
2023-02-06T20:41:50.837Z,1.57
2023-02-06T20:44:19.108Z,1.80
2023-02-06T20:46:46.798Z,1.67
2023-02-06T20:49:15.676Z,1.53
2023-02-06T20:51:43.597Z,1.70
2023-02-06T20:54:11.666Z,2.10
2023-02-06T20:56:39.464Z,1.87
2023-02-06T20:59:06.933Z,1.97
2023-02-06T21:01:34.481Z,2.43
2023-02-06T21:04:03.597Z,2.53
2023-02-06T21:06:31.318Z,1.90
2023-02-06T21:09:02.027Z,1.57
2023-02-06T21:11:30.425Z,2.03
2023-02-06T21:13:58.816Z,1.63
2023-02-06T21:16:27.547Z,2.00
2023-02-06T21:18:55.713Z,2.23
2023-02-06T21:21:23.408Z,2.00
2023-02-06T21:23:50.869Z,2.33
2023-02-06T21:26:18.683Z,1.80
2023-02-06T21:28:46.821Z,2.23
2023-02-06T21:31:16.447Z,1.83
2023-02-06T21:33:43.962Z,2.47
2023-02-06T21:36:11.532Z,2.00
2023-02-06T21:38:39.888Z,2.37
2023-02-06T21:41:30.518Z,2.10
2023-02-06T21:44:00.229Z,2.37
2023-02-06T21:46:30.788Z,2.00
2023-02-06T21:49:01.020Z,2.10
2023-02-06T21:51:30.428Z,2.03
2023-02-06T21:53:59.451Z,2.20
2023-02-06T21:56:29.128Z,2.17
2023-02-06T21:58:57.200Z,2.10
2023-02-06T22:01:29.363Z,2.00
2023-02-06T22:03:59.859Z,1.70
2023-02-06T22:06:30.066Z,1.80
2023-02-06T22:09:08.327Z,1.90
2023-02-06T22:11:43.098Z,2.07
2023-02-06T22:14:18.549Z,2.17
2023-02-06T22:16:47.553Z,2.53
2023-02-06T22:19:19.351Z,2.40
2023-02-06T22:24:56.932Z,2.37
2023-02-06T22:27:49.820Z,2.73
2023-02-06T22:30:17.756Z,2.70
2023-02-06T22:32:45.651Z,2.20
2023-02-06T22:35:13.649Z,2.10
2023-02-06T22:37:44.721Z,2.33
2023-02-06T22:40:12.978Z,2.47
2023-02-06T22:42:49.557Z,2.47
2023-02-06T22:45:17.512Z,2.00
2023-02-06T22:47:45.289Z,2.10
2023-02-06T22:50:15.305Z,2.33
2023-02-06T22:53:01.457Z,2.40
2023-02-06T22:55:48.951Z,2.60
2023-02-06T22:58:16.354Z,2.90
2023-02-06T23:00:43.917Z,2.73
2023-02-06T23:03:11.343Z,2.60
2023-02-06T23:05:39.029Z,2.40
2023-02-06T23:08:06.741Z,2.10
2023-02-06T23:10:34.365Z,2.60
2023-02-06T23:13:01.835Z,2.87
2023-02-06T23:15:29.291Z,2.70
2023-02-06T23:17:56.823Z,2.70
2023-02-06T23:20:24.191Z,2.67
2023-02-06T23:22:51.748Z,2.47
2023-02-06T23:25:19.187Z,2.80
2023-02-06T23:27:46.718Z,3.03
2023-02-06T23:30:14.335Z,2.60
2023-02-06T23:32:41.789Z,2.70
2023-02-06T23:35:09.290Z,2.70
2023-02-06T23:37:36.869Z,2.50
2023-02-06T23:40:05.524Z,3.47
2023-02-06T23:42:33.558Z,2.27
2023-02-06T23:45:01.725Z,3.03
2023-02-06T23:47:29.256Z,2.93
2023-02-06T23:49:56.606Z,3.20
2023-02-06T23:52:24.212Z,2.67
2023-02-06T23:54:51.761Z,3.33
2023-02-06T23:57:19.252Z,3.00
2023-02-06T23:59:46.611Z,2.83
